Time,TemperatureF,DewpointF,PressureIn,WindDirection,WindDirectionDegrees,WindSpeedMPH,WindSpeedGustMPH,Humidity,HourlyPrecipIn,Conditions,Clouds,dailyrainin,SolarRadiationWatts/m^2,SoftwareType,DateUTC
2013-02-24 00:01:00,38.0,36.0,-100.00,ESE,114,1.0,5.0,94,0.00,,,0.28,0.000000,,2013-02-24 08:01:00,
2013-02-24 00:11:00,38.0,36.0,-100.00,ESE,114,1.0,5.0,94,0.00,,,0.28,0.000000,,2013-02-24 08:11:00,
2013-02-24 00:22:00,38.0,36.0,-100.00,ESE,114,1.0,5.0,94,0.00,,,0.28,0.000000,,2013-02-24 08:22:00,
2013-02-24 00:31:00,38.0,36.0,-100.00,ESE,114,1.0,5.0,94,0.00,,,0.28,0.000000,,2013-02-24 08:31:00,
2013-02-24 00:54:00,38.0,37.0,-100.00,NNW,331,1.0,5.0,95,0.00,,,0.25,0.000000,,2013-02-24 08:54:00,
2013-02-24 01:01:00,38.0,37.0,-100.00,NNW,331,1.0,5.0,95,0.00,,,0.25,0.000000,,2013-02-24 09:01:00,
2013-02-24 01:11:00,38.0,37.0,-100.00,NNW,331,1.0,5.0,95,0.00,,,0.25,0.000000,,2013-02-24 09:11:00,
2013-02-24 01:21:00,38.0,37.0,-100.00,NNW,331,1.0,5.0,95,0.00,,,0.25,0.000000,,2013-02-24 09:21:00,
2013-02-24 01:31:00,38.0,37.0,-100.00,NNW,331,1.0,5.0,95,0.00,,,0.25,0.000000,,2013-02-24 09:31:00,
2013-02-24 01:52:00,39.0,36.0,-100.00,East,99,2.0,8.0,89,0.00,,,0.19,0.000000,,2013-02-24 09:52:00,
2013-02-24 02:01:00,39.0,36.0,-100.00,East,99,2.0,8.0,89,0.00,,,0.19,0.000000,,2013-02-24 10:01:00,
2013-02-24 02:11:00,39.0,36.0,-100.00,East,99,2.0,8.0,89,0.00,,,0.19,0.000000,,2013-02-24 10:11:00,
2013-02-24 02:21:00,39.0,36.0,-100.00,East,99,2.0,8.0,89,0.00,,,0.19,0.000000,,2013-02-24 10:21:00,
2013-02-24 02:31:00,39.0,36.0,-100.00,East,99,2.0,8.0,89,0.00,,,0.19,0.000000,,2013-02-24 10:31:00,
2013-02-24 02:52:00,39.0,35.0,-100.00,South,182,2.0,8.0,87,0.00,,,0.11,0.000000,,2013-02-24 10:52:00,
2013-02-24 03:01:00,39.0,35.0,-100.00,South,182,2.0,8.0,87,0.00,,,0.11,0.000000,,2013-02-24 11:01:00,
2013-02-24 03:11:00,39.0,35.0,-100.00,South,182,2.0,8.0,87,0.00,,,0.11,0.000000,,2013-02-24 11:11:00,
2013-02-24 03:21:00,39.0,35.0,-100.00,South,182,2.0,8.0,87,0.00,,,0.11,0.000000,,2013-02-24 11:21:00,
2013-02-24 03:31:00,39.0,35.0,-100.00,South,182,2.0,8.0,87,0.00,,,0.11,0.000000,,2013-02-24 11:31:00,
2013-02-24 03:53:00,39.0,35.0,-100.00,SSE,155,3.0,10.0,85,0.00,,,0.07,0.000000,,2013-02-24 11:53:00,
2013-02-24 04:01:00,39.0,35.0,-100.00,SSE,155,3.0,10.0,85,0.00,,,0.07,0.000000,,2013-02-24 12:01:00,
2013-02-24 04:11:00,39.0,35.0,-100.00,SSE,155,3.0,10.0,85,0.00,,,0.07,0.000000,,2013-02-24 12:11:00,
2013-02-24 04:21:00,39.0,35.0,-100.00,SSE,155,3.0,10.0,85,0.00,,,0.07,0.000000,,2013-02-24 12:21:00,
2013-02-24 04:32:00,39.0,35.0,-100.00,SSE,155,3.0,10.0,85,0.00,,,0.07,0.000000,,2013-02-24 12:32:00,
2013-02-24 05:54:00,38.0,36.0,-100.00,SE,138,5.0,11.0,93,-99.99,,,0.07,0.000000,,2013-02-24 13:54:00,
2013-02-24 06:03:00,38.0,36.0,-100.00,SE,138,5.0,11.0,93,-99.99,,,0.07,0.000000,,2013-02-24 14:03:00,
2013-02-24 06:12:00,38.0,36.0,-100.00,SE,138,5.0,11.0,93,-99.99,,,0.07,0.000000,,2013-02-24 14:12:00,
2013-02-24 06:23:00,38.0,36.0,-100.00,SE,138,5.0,11.0,93,-99.99,,,0.07,0.000000,,2013-02-24 14:23:00,
2013-02-24 06:32:00,38.0,36.0,-100.00,SE,138,5.0,11.0,93,-99.99,,,0.07,0.000000,,2013-02-24 14:32:00,
2013-02-24 06:54:00,39.0,36.0,-100.00,SE,132,5.0,14.0,88,0.00,,,0.07,0.000000,,2013-02-24 14:54:00,
2013-02-24 07:02:00,39.0,36.0,-100.00,SE,132,5.0,14.0,88,0.00,,,0.07,0.000000,,2013-02-24 15:02:00,
2013-02-24 07:12:00,39.0,36.0,-100.00,SE,132,5.0,14.0,88,0.00,,,0.07,0.000000,,2013-02-24 15:12:00,
2013-02-24 07:22:00,39.0,36.0,-100.00,SE,132,5.0,14.0,88,0.00,,,0.07,0.000000,,2013-02-24 15:22:00,
2013-02-24 07:31:00,39.0,36.0,-100.00,SE,132,5.0,14.0,88,0.00,,,0.07,0.000000,,2013-02-24 15:31:00,
2013-02-24 07:53:00,39.0,37.0,-100.00,SE,144,5.0,14.0,91,0.01,,,0.08,2.000000,,2013-02-24 15:53:00,
2013-02-24 08:01:00,39.0,37.0,-100.00,SE,144,5.0,14.0,91,0.01,,,0.08,2.000000,,2013-02-24 16:01:00,
2013-02-24 08:11:00,39.0,37.0,-100.00,SE,144,5.0,14.0,91,0.01,,,0.08,2.000000,,2013-02-24 16:11:00,
2013-02-24 08:21:00,39.0,37.0,-100.00,SE,144,5.0,14.0,91,0.01,,,0.08,2.000000,,2013-02-24 16:21:00,
2013-02-24 08:31:00,39.0,37.0,-100.00,SE,144,5.0,14.0,91,0.01,,,0.08,2.000000,,2013-02-24 16:31:00,
2013-02-24 08:52:00,40.0,37.0,-100.00,SSE,153,6.0,14.0,90,0.02,,,0.10,43.000000,,2013-02-24 16:52:00,
2013-02-24 09:01:00,40.0,37.0,-100.00,SSE,153,6.0,14.0,90,0.02,,,0.10,43.000000,,2013-02-24 17:01:00,
2013-02-24 09:11:00,40.0,37.0,-100.00,SSE,153,6.0,14.0,90,0.02,,,0.10,43.000000,,2013-02-24 17:11:00,
2013-02-24 09:21:00,40.0,37.0,-100.00,SSE,153,6.0,14.0,90,0.02,,,0.10,43.000000,,2013-02-24 17:21:00,
2013-02-24 09:31:00,40.0,37.0,-100.00,SSE,153,6.0,14.0,90,0.02,,,0.10,43.000000,,2013-02-24 17:31:00,
2013-02-24 09:52:00,41.0,38.0,-100.00,SSE,150,7.0,18.0,89,0.00,,,0.10,113.000000,,2013-02-24 17:52:00,
2013-02-24 10:01:00,41.0,38.0,-100.00,SSE,150,7.0,18.0,89,0.00,,,0.10,113.000000,,2013-02-24 18:01:00,
2013-02-24 10:11:00,41.0,38.0,-100.00,SSE,150,7.0,18.0,89,0.00,,,0.10,113.000000,,2013-02-24 18:11:00,
2013-02-24 10:21:00,41.0,38.0,-100.00,SSE,150,7.0,18.0,89,0.00,,,0.10,113.000000,,2013-02-24 18:21:00,
2013-02-24 10:31:00,41.0,38.0,-100.00,SSE,150,7.0,18.0,89,0.00,,,0.10,113.000000,,2013-02-24 18:31:00,
2013-02-24 10:52:00,42.0,40.0,-100.00,SSE,156,7.0,16.0,91,0.02,,,0.12,155.000000,,2013-02-24 18:52:00,
2013-02-24 11:01:00,42.0,40.0,-100.00,SSE,156,7.0,16.0,91,0.02,,,0.12,155.000000,,2013-02-24 19:01:00,
2013-02-24 11:11:00,42.0,40.0,-100.00,SSE,156,7.0,16.0,91,0.02,,,0.12,155.000000,,2013-02-24 19:11:00,
2013-02-24 11:22:00,42.0,40.0,-100.00,SSE,156,7.0,16.0,91,0.02,,,0.12,155.000000,,2013-02-24 19:22:00,
2013-02-24 11:31:00,42.0,40.0,-100.00,SSE,156,7.0,16.0,91,0.02,,,0.12,155.000000,,2013-02-24 19:31:00,
2013-02-24 11:52:00,43.0,41.0,-100.00,SSE,161,6.0,17.0,92,0.03,,,-99.99,186.000000,,2013-02-24 19:52:00,
2013-02-24 12:02:00,43.0,41.0,-100.00,SSE,161,6.0,17.0,92,0.03,,,-99.99,186.000000,,2013-02-24 20:02:00,
2013-02-24 12:11:00,43.0,41.0,-100.00,SSE,161,6.0,17.0,92,0.03,,,-99.99,186.000000,,2013-02-24 20:11:00,
2013-02-24 12:21:00,43.0,41.0,-100.00,SSE,161,6.0,17.0,92,0.03,,,-99.99,186.000000,,2013-02-24 20:21:00,
2013-02-24 12:31:00,43.0,41.0,-100.00,SSE,161,6.0,17.0,92,0.03,,,-99.99,186.000000,,2013-02-24 20:31:00,
2013-02-24 12:52:00,44.0,42.0,-100.00,SSE,154,6.0,16.0,92,0.03,,,0.18,211.000000,,2013-02-24 20:52:00,
2013-02-24 13:01:00,44.0,42.0,-100.00,SSE,154,6.0,16.0,92,0.03,,,0.18,211.000000,,2013-02-24 21:01:00,
2013-02-24 13:11:00,44.0,42.0,-100.00,SSE,154,6.0,16.0,92,0.03,,,0.18,211.000000,,2013-02-24 21:11:00,
2013-02-24 13:21:00,44.0,42.0,-100.00,SSE,154,6.0,16.0,92,0.03,,,0.18,211.000000,,2013-02-24 21:21:00,
2013-02-24 13:31:00,44.0,42.0,-100.00,SSE,154,6.0,16.0,92,0.03,,,0.18,211.000000,,2013-02-24 21:31:00,
2013-02-24 13:52:00,44.0,42.0,-100.00,SSE,158,6.0,15.0,93,0.07,,,0.25,162.000000,,2013-02-24 21:52:00,
2013-02-24 14:01:00,44.0,42.0,-100.00,SSE,158,6.0,15.0,93,0.07,,,0.25,162.000000,,2013-02-24 22:01:00,
2013-02-24 14:11:00,44.0,42.0,-100.00,SSE,158,6.0,15.0,93,0.07,,,0.25,162.000000,,2013-02-24 22:11:00,
2013-02-24 14:21:00,44.0,42.0,-100.00,SSE,158,6.0,15.0,93,0.07,,,0.25,162.000000,,2013-02-24 22:21:00,
2013-02-24 14:31:00,44.0,42.0,-100.00,SSE,158,6.0,15.0,93,0.07,,,0.25,162.000000,,2013-02-24 22:31:00,
2013-02-24 14:52:00,44.0,42.0,-100.00,SSE,156,6.0,16.0,94,0.05,,,0.30,110.000000,,2013-02-24 22:52:00,
2013-02-24 15:02:00,44.0,42.0,-100.00,SSE,156,6.0,16.0,94,0.05,,,0.30,110.000000,,2013-02-24 23:02:00,
2013-02-24 15:11:00,44.0,42.0,-100.00,SSE,156,6.0,16.0,94,0.05,,,0.30,110.000000,,2013-02-24 23:11:00,
2013-02-24 15:21:00,44.0,42.0,-100.00,SSE,156,6.0,16.0,94,0.05,,,0.30,110.000000,,2013-02-24 23:21:00,
2013-02-24 15:31:00,44.0,42.0,-100.00,SSE,156,6.0,16.0,94,0.05,,,0.30,110.000000,,2013-02-24 23:31:00,
2013-02-24 15:52:00,44.0,42.0,-100.00,SSE,163,6.0,14.0,94,0.06,,,0.36,87.000000,,2013-02-24 23:52:00,
2013-02-24 16:01:00,44.0,42.0,-100.00,SSE,163,6.0,14.0,94,0.06,,,0.36,87.000000,,2013-02-25 00:01:00,
2013-02-24 16:11:00,44.0,42.0,-100.00,SSE,163,6.0,14.0,94,0.06,,,0.36,87.000000,,2013-02-25 00:11:00,
2013-02-24 16:21:00,44.0,42.0,-100.00,SSE,163,6.0,14.0,94,0.06,,,0.36,87.000000,,2013-02-25 00:21:00,
2013-02-24 16:31:00,44.0,42.0,-100.00,SSE,163,6.0,14.0,94,0.06,,,0.36,87.000000,,2013-02-25 00:31:00,
2013-02-24 16:52:00,43.0,41.0,-100.00,SSE,160,6.0,18.0,93,0.06,,,0.42,43.000000,,2013-02-25 00:52:00,
2013-02-24 17:01:00,43.0,41.0,-100.00,SSE,160,6.0,18.0,93,0.06,,,0.42,43.000000,,2013-02-25 01:01:00,
2013-02-24 17:11:00,43.0,41.0,-100.00,SSE,160,6.0,18.0,93,0.06,,,0.42,43.000000,,2013-02-25 01:11:00,
2013-02-24 17:21:00,43.0,41.0,-100.00,SSE,160,6.0,18.0,93,0.06,,,0.42,43.000000,,2013-02-25 01:21:00,
2013-02-24 17:31:00,43.0,41.0,-100.00,SSE,160,6.0,18.0,93,0.06,,,0.42,43.000000,,2013-02-25 01:31:00,
2013-02-24 17:52:00,42.0,40.0,-100.00,SSE,154,7.0,19.0,93,0.09,,,-99.99,20.000000,,2013-02-25 01:52:00,
2013-02-24 18:01:00,42.0,40.0,-100.00,SSE,154,7.0,19.0,93,0.09,,,-99.99,20.000000,,2013-02-25 02:01:00,
2013-02-24 18:11:00,42.0,40.0,-100.00,SSE,154,7.0,19.0,93,0.09,,,-99.99,20.000000,,2013-02-25 02:11:00,
2013-02-24 18:21:00,42.0,40.0,-100.00,SSE,154,7.0,19.0,93,0.09,,,-99.99,20.000000,,2013-02-25 02:21:00,
2013-02-24 18:31:00,42.0,40.0,-100.00,SSE,154,7.0,19.0,93,0.09,,,-99.99,20.000000,,2013-02-25 02:31:00,
2013-02-24 18:52:00,42.0,40.0,-100.00,SSE,151,7.0,17.0,93,0.10,,,0.61,2.000000,,2013-02-25 02:52:00,
2013-02-24 19:01:00,42.0,40.0,-100.00,SSE,151,7.0,17.0,93,0.10,,,0.61,2.000000,,2013-02-25 03:01:00,
2013-02-24 19:11:00,42.0,40.0,-100.00,SSE,151,7.0,17.0,93,0.10,,,0.61,2.000000,,2013-02-25 03:11:00,
2013-02-24 19:21:00,42.0,40.0,-100.00,SSE,151,7.0,17.0,93,0.10,,,0.61,2.000000,,2013-02-25 03:21:00,
2013-02-24 19:31:00,42.0,40.0,-100.00,SSE,151,7.0,17.0,93,0.10,,,0.61,2.000000,,2013-02-25 03:31:00,
2013-02-24 19:52:00,42.0,40.0,-100.00,SSE,160,7.0,20.0,93,0.11,,,0.72,0.000000,,2013-02-25 03:52:00,
2013-02-24 20:01:00,42.0,40.0,-100.00,SSE,160,7.0,20.0,93,0.11,,,0.72,0.000000,,2013-02-25 04:01:00,
2013-02-24 20:11:00,42.0,40.0,-100.00,SSE,160,7.0,20.0,93,0.11,,,0.72,0.000000,,2013-02-25 04:11:00,
2013-02-24 20:21:00,42.0,40.0,-100.00,SSE,160,7.0,20.0,93,0.11,,,0.72,0.000000,,2013-02-25 04:21:00,
2013-02-24 20:31:00,42.0,40.0,-100.00,SSE,160,7.0,20.0,93,0.11,,,0.72,0.000000,,2013-02-25 04:31:00,
2013-02-24 20:52:00,41.0,39.0,-100.00,SSE,150,8.0,20.0,92,0.12,,,0.80,0.000000,,2013-02-25 04:52:00,
2013-02-24 21:01:00,41.0,39.0,-100.00,SSE,150,8.0,20.0,92,0.12,,,0.80,0.000000,,2013-02-25 05:01:00,
2013-02-24 21:11:00,41.0,39.0,-100.00,SSE,150,8.0,20.0,92,0.12,,,0.80,0.000000,,2013-02-25 05:11:00,
2013-02-24 21:22:00,41.0,39.0,-100.00,SSE,150,8.0,20.0,92,0.12,,,0.80,0.000000,,2013-02-25 05:22:00,
2013-02-24 21:31:00,41.0,39.0,-100.00,SSE,150,8.0,20.0,92,0.12,,,0.80,0.000000,,2013-02-25 05:31:00,
2013-02-24 21:52:00,41.0,39.0,-100.00,SSE,155,8.0,23.0,93,0.11,,,0.90,0.000000,,2013-02-25 05:52:00,
2013-02-24 22:02:00,41.0,39.0,-100.00,SSE,155,8.0,23.0,93,0.11,,,0.90,0.000000,,2013-02-25 06:02:00,
2013-02-24 22:11:00,41.0,39.0,-100.00,SSE,155,8.0,23.0,93,0.11,,,0.90,0.000000,,2013-02-25 06:11:00,
2013-02-24 22:21:00,41.0,39.0,-100.00,SSE,155,8.0,23.0,93,0.11,,,0.90,0.000000,,2013-02-25 06:21:00,
2013-02-24 22:31:00,41.0,39.0,-100.00,SSE,155,8.0,23.0,93,0.11,,,0.90,0.000000,,2013-02-25 06:31:00,
2013-02-24 22:52:00,41.0,39.0,-100.00,SSE,164,8.0,22.0,93,0.15,,,1.05,0.000000,,2013-02-25 06:52:00,
2013-02-24 23:01:00,41.0,39.0,-100.00,SSE,164,8.0,22.0,93,0.15,,,1.05,0.000000,,2013-02-25 07:01:00,
2013-02-24 23:11:00,41.0,39.0,-100.00,SSE,164,8.0,22.0,93,0.15,,,1.05,0.000000,,2013-02-25 07:11:00,
2013-02-24 23:21:00,41.0,39.0,-100.00,SSE,164,8.0,22.0,93,0.15,,,1.05,0.000000,,2013-02-25 07:21:00,
2013-02-24 23:31:00,41.0,39.0,-100.00,SSE,164,8.0,22.0,93,0.15,,,1.05,0.000000,,2013-02-25 07:31:00,
2013-02-24 23:52:00,41.0,39.0,-100.00,SSE,153,7.0,19.0,92,0.28,,,1.33,0.000000,,2013-02-25 07:52:00,